sensor_id;sensor_type;location;lat;lon;timestamp;pressure;altitude;pressure_sealevel;temperature;humidity
33163;BME280;29282;45.656;11.302;2023-07-30T00:01:19;98090.38;;;24.43;58.36
33163;BME280;29282;45.656;11.302;2023-07-30T00:03:44;98090.38;;;24.43;58.69
33163;BME280;29282;45.656;11.302;2023-07-30T00:06:10;98086.81;;;24.43;58.61
33163;BME280;29282;45.656;11.302;2023-07-30T00:08:35;98085.66;;;24.44;58.69
33163;BME280;29282;45.656;11.302;2023-07-30T00:11:01;98089.59;;;24.43;58.57
33163;BME280;29282;45.656;11.302;2023-07-30T00:13:26;98096.31;;;24.42;58.68
33163;BME280;29282;45.656;11.302;2023-07-30T00:15:54;98074.16;;;24.42;58.62
33163;BME280;29282;45.656;11.302;2023-07-30T00:18:20;98067.44;;;24.43;58.64
33163;BME280;29282;45.656;11.302;2023-07-30T00:20:45;98082.47;;;24.42;58.57
33163;BME280;29282;45.656;11.302;2023-07-30T00:23:11;98081.28;;;24.43;58.57
33163;BME280;29282;45.656;11.302;2023-07-30T00:25:36;98086.81;;;24.43;58.65
33163;BME280;29282;45.656;11.302;2023-07-30T00:28:02;98089.59;;;24.43;58.53
33163;BME280;29282;45.656;11.302;2023-07-30T00:30:30;98094.34;;;24.42;58.56
33163;BME280;29282;45.656;11.302;2023-07-30T00:32:56;98101.47;;;24.43;58.56
33163;BME280;29282;45.656;11.302;2023-07-30T00:35:21;98106.19;;;24.43;58.74
33163;BME280;29282;45.656;11.302;2023-07-30T00:37:47;98110.94;;;24.42;58.65
33163;BME280;29282;45.656;11.302;2023-07-30T00:40:12;98110.94;;;24.42;58.51
33163;BME280;29282;45.656;11.302;2023-07-30T00:42:38;98111.75;;;24.43;58.69
33163;BME280;29282;45.656;11.302;2023-07-30T00:45:04;98117.28;;;24.43;58.62
33163;BME280;29282;45.656;11.302;2023-07-30T00:47:30;98118.06;;;24.43;58.55
33163;BME280;29282;45.656;11.302;2023-07-30T00:49:55;98121.66;;;24.44;58.43
33163;BME280;29282;45.656;11.302;2023-07-30T00:52:22;98111.75;;;24.43;58.54
33163;BME280;29282;45.656;11.302;2023-07-30T00:54:49;98100.66;;;24.43;58.61
33163;BME280;29282;45.656;11.302;2023-07-30T00:57:16;98095.13;;;24.43;58.71
33163;BME280;29282;45.656;11.302;2023-07-30T00:59:44;98102.66;;;24.42;58.61
33163;BME280;29282;45.656;11.302;2023-07-30T01:02:09;98101.84;;;24.42;58.64
33163;BME280;29282;45.656;11.302;2023-07-30T01:04:36;98097.09;;;24.42;58.71
33163;BME280;29282;45.656;11.302;2023-07-30T01:07:03;98088.00;;;24.42;58.66
33163;BME280;29282;45.656;11.302;2023-07-30T01:09:28;98088.78;;;24.42;58.74
33163;BME280;29282;45.656;11.302;2023-07-30T01:11:54;98088.00;;;24.42;58.43
33163;BME280;29282;45.656;11.302;2023-07-30T01:14:21;98064.66;;;24.43;58.47
33163;BME280;29282;45.656;11.302;2023-07-30T01:16:48;98060.31;;;24.42;58.42
33163;BME280;29282;45.656;11.302;2023-07-30T01:19:14;98060.31;;;24.42;58.62
33163;BME280;29282;45.656;11.302;2023-07-30T01:21:39;98043.69;;;24.42;58.56
33163;BME280;29282;45.656;11.302;2023-07-30T01:24:05;98026.28;;;24.41;58.57
33163;BME280;29282;45.656;11.302;2023-07-30T01:26:37;98002.50;;;24.40;58.55
33163;BME280;29282;45.656;11.302;2023-07-30T01:29:08;98003.34;;;24.41;58.77
33163;BME280;29282;45.656;11.302;2023-07-30T01:31:35;97978.44;;;24.41;58.69
33163;BME280;29282;45.656;11.302;2023-07-30T01:34:05;97970.91;;;24.41;58.73
33163;BME280;29282;45.656;11.302;2023-07-30T01:36:32;97989.09;;;24.42;58.70
33163;BME280;29282;45.656;11.302;2023-07-30T01:38:59;98000.97;;;24.43;58.61
33163;BME280;29282;45.656;11.302;2023-07-30T01:41:25;98003.75;;;24.43;58.37
33163;BME280;29282;45.656;11.302;2023-07-30T01:43:50;97993.84;;;24.42;58.58
33163;BME280;29282;45.656;11.302;2023-07-30T01:46:16;97979.22;;;24.41;58.50
33163;BME280;29282;45.656;11.302;2023-07-30T01:48:41;97966.16;;;24.42;58.52
33163;BME280;29282;45.656;11.302;2023-07-30T01:51:06;97945.19;;;24.41;58.59
33163;BME280;29282;45.656;11.302;2023-07-30T01:53:32;97936.91;;;24.41;58.67
33163;BME280;29282;45.656;11.302;2023-07-30T01:55:58;97936.03;;;24.40;58.77
33163;BME280;29282;45.656;11.302;2023-07-30T01:58:23;97938.81;;;24.40;58.64
33163;BME280;29282;45.656;11.302;2023-07-30T02:00:49;97920.28;;;24.41;58.56
33163;BME280;29282;45.656;11.302;2023-07-30T02:03:14;97931.34;;;24.41;58.55
33163;BME280;29282;45.656;11.302;2023-07-30T02:05:39;97936.91;;;24.41;58.55
33163;BME280;29282;45.656;11.302;2023-07-30T02:08:05;97924.19;;;24.39;58.47
33163;BME280;29282;45.656;11.302;2023-07-30T02:10:30;97927.72;;;24.40;58.50
33163;BME280;29282;45.656;11.302;2023-07-30T02:12:56;97944.34;;;24.40;58.55
33163;BME280;29282;45.656;11.302;2023-07-30T02:15:21;97949.56;;;24.42;58.32
33163;BME280;29282;45.656;11.302;2023-07-30T02:17:47;97957.84;;;24.42;58.58
33163;BME280;29282;45.656;11.302;2023-07-30T02:20:12;97966.16;;;24.42;58.48
33163;BME280;29282;45.656;11.302;2023-07-30T02:22:38;97968.16;;;24.41;58.48
33163;BME280;29282;45.656;11.302;2023-07-30T02:25:04;97983.56;;;24.42;58.54
33163;BME280;29282;45.656;11.302;2023-07-30T02:27:29;97985.56;;;24.42;58.59
33163;BME280;29282;45.656;11.302;2023-07-30T02:29:55;97977.25;;;24.42;58.47
33163;BME280;29282;45.656;11.302;2023-07-30T02:32:20;97972.88;;;24.41;58.45
33163;BME280;29282;45.656;11.302;2023-07-30T02:34:46;97982.78;;;24.42;58.59
33163;BME280;29282;45.656;11.302;2023-07-30T02:37:11;97975.66;;;24.41;58.57
33163;BME280;29282;45.656;11.302;2023-07-30T02:39:37;97983.97;;;24.41;58.56
33163;BME280;29282;45.656;11.302;2023-07-30T02:42:02;97997.81;;;24.41;58.46
33163;BME280;29282;45.656;11.302;2023-07-30T02:44:28;97993.84;;;24.42;58.61
33163;BME280;29282;45.656;11.302;2023-07-30T02:46:53;97996.63;;;24.42;58.44
33163;BME280;29282;45.656;11.302;2023-07-30T02:49:19;97997.81;;;24.41;58.46
33163;BME280;29282;45.656;11.302;2023-07-30T02:51:44;97985.09;;;24.39;58.51
33163;BME280;29282;45.656;11.302;2023-07-30T02:54:14;97977.56;;;24.40;58.67
33163;BME280;29282;45.656;11.302;2023-07-30T02:56:44;97977.56;;;24.40;58.59
33163;BME280;29282;45.656;11.302;2023-07-30T02:59:10;97983.50;;;24.38;58.42
33163;BME280;29282;45.656;11.302;2023-07-30T03:01:36;97982.31;;;24.39;58.37
33163;BME280;29282;45.656;11.302;2023-07-30T03:04:01;97987.88;;;24.39;58.47
33163;BME280;29282;45.656;11.302;2023-07-30T03:06:28;97991.41;;;24.40;58.44
33163;BME280;29282;45.656;11.302;2023-07-30T03:08:53;97997.81;;;24.41;58.52
33163;BME280;29282;45.656;11.302;2023-07-30T03:11:19;98001.72;;;24.39;58.59
33163;BME280;29282;45.656;11.302;2023-07-30T03:13:44;97994.19;;;24.40;58.59
33163;BME280;29282;45.656;11.302;2023-07-30T03:16:10;97998.94;;;24.39;58.55
33163;BME280;29282;45.656;11.302;2023-07-30T03:18:35;98005.66;;;24.38;58.28
33163;BME280;29282;45.656;11.302;2023-07-30T03:21:01;97999.34;;;24.38;58.32
33163;BME280;29282;45.656;11.302;2023-07-30T03:23:27;98007.25;;;24.39;58.54
33163;BME280;29282;45.656;11.302;2023-07-30T03:25:53;98011.19;;;24.38;58.20
33163;BME280;29282;45.656;11.302;2023-07-30T03:28:18;98011.19;;;24.38;58.35
33163;BME280;29282;45.656;11.302;2023-07-30T03:30:44;98011.19;;;24.38;58.55
33163;BME280;29282;45.656;11.302;2023-07-30T03:33:09;98027.03;;;24.38;58.52
33163;BME280;29282;45.656;11.302;2023-07-30T03:35:35;98029.41;;;24.39;58.39
33163;BME280;29282;45.656;11.302;2023-07-30T03:38:01;98043.25;;;24.39;58.44
33163;BME280;29282;45.656;11.302;2023-07-30T03:40:26;98046.81;;;24.40;58.55
33163;BME280;29282;45.656;11.302;2023-07-30T03:42:52;98057.09;;;24.39;58.29
33163;BME280;29282;45.656;11.302;2023-07-30T03:45:17;98060.25;;;24.38;58.52
33163;BME280;29282;45.656;11.302;2023-07-30T03:47:43;98062.63;;;24.39;58.57
33163;BME280;29282;45.656;11.302;2023-07-30T03:50:09;98069.34;;;24.38;58.38
33163;BME280;29282;45.656;11.302;2023-07-30T03:52:34;98076.47;;;24.39;58.49
33163;BME280;29282;45.656;11.302;2023-07-30T03:55:00;98073.31;;;24.37;58.63
33163;BME280;29282;45.656;11.302;2023-07-30T03:57:25;98076.88;;;24.38;58.36
33163;BME280;29282;45.656;11.302;2023-07-30T03:59:51;98078.84;;;24.37;58.20
33163;BME280;29282;45.656;11.302;2023-07-30T04:02:16;98076.88;;;24.38;58.35
33163;BME280;29282;45.656;11.302;2023-07-30T04:04:42;98077.66;;;24.38;58.36
33163;BME280;29282;45.656;11.302;2023-07-30T04:07:13;98078.84;;;24.37;58.45
33163;BME280;29282;45.656;11.302;2023-07-30T04:09:39;98076.06;;;24.37;58.52
33163;BME280;29282;45.656;11.302;2023-07-30T04:12:05;98082.41;;;24.38;58.46
33163;BME280;29282;45.656;11.302;2023-07-30T04:14:31;98073.31;;;24.37;58.21
33163;BME280;29282;45.656;11.302;2023-07-30T04:16:56;98074.88;;;24.38;58.56
33163;BME280;29282;45.656;11.302;2023-07-30T04:19:21;98083.19;;;24.38;58.26
33163;BME280;29282;45.656;11.302;2023-07-30T04:21:47;98081.59;;;24.37;58.43
33163;BME280;29282;45.656;11.302;2023-07-30T04:24:13;98087.16;;;24.37;58.27
33163;BME280;29282;45.656;11.302;2023-07-30T04:26:38;98093.09;;;24.39;58.24
33163;BME280;29282;45.656;11.302;2023-07-30T04:29:04;98087.16;;;24.37;58.16
33163;BME280;29282;45.656;11.302;2023-07-30T04:31:29;98103.75;;;24.37;58.25
33163;BME280;29282;45.656;11.302;2023-07-30T04:33:55;98101.78;;;24.38;58.42
33163;BME280;29282;45.656;11.302;2023-07-30T04:36:20;98112.84;;;24.38;58.37
33163;BME280;29282;45.656;11.302;2023-07-30T04:38:48;98115.63;;;24.38;58.26
33163;BME280;29282;45.656;11.302;2023-07-30T04:41:14;98109.31;;;24.37;58.25
33163;BME280;29282;45.656;11.302;2023-07-30T04:43:39;98114.84;;;24.37;58.33
33163;BME280;29282;45.656;11.302;2023-07-30T04:46:05;98110.44;;;24.36;58.35
33163;BME280;29282;45.656;11.302;2023-07-30T04:48:30;98113.22;;;24.36;58.24
33163;BME280;29282;45.656;11.302;2023-07-30T04:50:56;98114.00;;;24.37;58.25
33163;BME280;29282;45.656;11.302;2023-07-30T04:53:21;98110.44;;;24.36;58.15
33163;BME280;29282;45.656;11.302;2023-07-30T04:55:47;98095.81;;;24.36;58.48
33163;BME280;29282;45.656;11.302;2023-07-30T04:58:12;98102.16;;;24.36;58.53
33163;BME280;29282;45.656;11.302;2023-07-30T05:00:38;98099.38;;;24.36;58.31
33163;BME280;29282;45.656;11.302;2023-07-30T05:03:03;98102.16;;;24.36;58.23
33163;BME280;29282;45.656;11.302;2023-07-30T05:05:29;98106.91;;;24.36;58.33
33163;BME280;29282;45.656;11.302;2023-07-30T05:07:54;98111.25;;;24.37;58.28
33163;BME280;29282;45.656;11.302;2023-07-30T05:10:20;98112.44;;;24.36;58.32
33163;BME280;29282;45.656;11.302;2023-07-30T05:12:45;98111.25;;;24.37;58.37
33163;BME280;29282;45.656;11.302;2023-07-30T05:15:11;98107.69;;;24.36;58.33
33163;BME280;29282;45.656;11.302;2023-07-30T05:17:36;98107.69;;;24.36;58.15
33163;BME280;29282;45.656;11.302;2023-07-30T05:20:02;98107.69;;;24.36;58.28
33163;BME280;29282;45.656;11.302;2023-07-30T05:22:28;98102.94;;;24.37;58.28
33163;BME280;29282;45.656;11.302;2023-07-30T05:24:53;98109.66;;;24.36;58.12
33163;BME280;29282;45.656;11.302;2023-07-30T05:27:18;98102.53;;;24.35;58.28
33163;BME280;29282;45.656;11.302;2023-07-30T05:29:44;98106.91;;;24.36;58.26
33163;BME280;29282;45.656;11.302;2023-07-30T05:32:09;98107.69;;;24.36;58.11
33163;BME280;29282;45.656;11.302;2023-07-30T05:34:38;98111.25;;;24.37;58.25
33163;BME280;29282;45.656;11.302;2023-07-30T05:37:03;98105.72;;;24.37;58.29
33163;BME280;29282;45.656;11.302;2023-07-30T05:39:29;98111.25;;;24.37;58.00
33163;BME280;29282;45.656;11.302;2023-07-30T05:41:54;98110.44;;;24.36;58.32
33163;BME280;29282;45.656;11.302;2023-07-30T05:44:20;98111.25;;;24.37;58.28
33163;BME280;29282;45.656;11.302;2023-07-30T05:46:45;98123.16;;;24.37;58.29
33163;BME280;29282;45.656;11.302;2023-07-30T05:49:11;98116.00;;;24.36;58.32
33163;BME280;29282;45.656;11.302;2023-07-30T05:51:37;98115.19;;;24.36;58.26
33163;BME280;29282;45.656;11.302;2023-07-30T05:54:02;98123.50;;;24.36;58.08
33163;BME280;29282;45.656;11.302;2023-07-30T05:56:28;98123.50;;;24.36;58.20
33163;BME280;29282;45.656;11.302;2023-07-30T05:58:53;98120.75;;;24.36;58.11
33163;BME280;29282;45.656;11.302;2023-07-30T06:01:19;98122.31;;;24.37;58.04
33163;BME280;29282;45.656;11.302;2023-07-30T06:03:45;98123.50;;;24.36;58.12
33163;BME280;29282;45.656;11.302;2023-07-30T06:06:13;98123.16;;;24.37;57.87
33163;BME280;29282;45.656;11.302;2023-07-30T06:08:39;98126.69;;;24.38;58.23
33163;BME280;29282;45.656;11.302;2023-07-30T06:11:04;98118.75;;;24.36;58.00
33163;BME280;29282;45.656;11.302;2023-07-30T06:13:30;98116.78;;;24.37;57.87
33163;BME280;29282;45.656;11.302;2023-07-30T06:15:55;98120.38;;;24.37;57.92
33163;BME280;29282;45.656;11.302;2023-07-30T06:18:21;98124.72;;;24.38;58.19
33163;BME280;29282;45.656;11.302;2023-07-30T06:20:47;98129.09;;;24.39;57.90
33163;BME280;29282;45.656;11.302;2023-07-30T06:23:12;98133.50;;;24.41;58.04
33163;BME280;29282;45.656;11.302;2023-07-30T06:25:38;98144.56;;;24.41;57.97
33163;BME280;29282;45.656;11.302;2023-07-30T06:28:05;98140.94;;;24.40;57.98
33163;BME280;29282;45.656;11.302;2023-07-30T06:30:32;98137.38;;;24.39;58.00
33163;BME280;29282;45.656;11.302;2023-07-30T06:32:58;98140.16;;;24.39;58.20
33163;BME280;29282;45.656;11.302;2023-07-30T06:35:24;98137.38;;;24.39;57.92
33163;BME280;29282;45.656;11.302;2023-07-30T06:37:50;98147.34;;;24.41;57.96
33163;BME280;29282;45.656;11.302;2023-07-30T06:40:16;98144.56;;;24.41;57.90
33163;BME280;29282;45.656;11.302;2023-07-30T06:42:42;98148.47;;;24.39;57.90
33163;BME280;29282;45.656;11.302;2023-07-30T06:45:08;98145.38;;;24.41;58.09
33163;BME280;29282;45.656;11.302;2023-07-30T06:47:33;98142.59;;;24.41;58.12
33163;BME280;29282;45.656;11.302;2023-07-30T06:49:59;98139.03;;;24.41;57.95
33163;BME280;29282;45.656;11.302;2023-07-30T06:52:25;98144.19;;;24.42;57.90
33163;BME280;29282;45.656;11.302;2023-07-30T06:54:50;98139.44;;;24.43;57.94
33163;BME280;29282;45.656;11.302;2023-07-30T06:57:16;98132.31;;;24.42;57.92
33163;BME280;29282;45.656;11.302;2023-07-30T06:59:41;98135.09;;;24.42;57.99
33163;BME280;29282;45.656;11.302;2023-07-30T07:02:07;98129.53;;;24.42;58.05
33163;BME280;29282;45.656;11.302;2023-07-30T07:04:32;98131.91;;;24.43;58.02
33163;BME280;29282;45.656;11.302;2023-07-30T07:06:58;98131.91;;;24.43;57.67
33163;BME280;29282;45.656;11.302;2023-07-30T07:09:23;98133.91;;;24.43;58.01
33163;BME280;29282;45.656;11.302;2023-07-30T07:11:49;98134.69;;;24.43;57.87
33163;BME280;29282;45.656;11.302;2023-07-30T07:14:14;98135.50;;;24.44;57.96
33163;BME280;29282;45.656;11.302;2023-07-30T07:16:40;98135.50;;;24.44;57.85
33163;BME280;29282;45.656;11.302;2023-07-30T07:19:06;98133.91;;;24.43;57.79
33163;BME280;29282;45.656;11.302;2023-07-30T07:21:31;98141.03;;;24.44;57.80
33163;BME280;29282;45.656;11.302;2023-07-30T07:23:56;98133.53;;;24.44;57.86
33163;BME280;29282;45.656;11.302;2023-07-30T07:26:22;98130.75;;;24.44;57.90
33163;BME280;29282;45.656;11.302;2023-07-30T07:28:47;98133.53;;;24.44;57.67
33163;BME280;29282;45.656;11.302;2023-07-30T07:31:13;98131.56;;;24.45;57.75
33163;BME280;29282;45.656;11.302;2023-07-30T07:33:39;98130.75;;;24.44;57.80
33163;BME280;29282;45.656;11.302;2023-07-30T07:36:06;98135.13;;;24.45;57.75
33163;BME280;29282;45.656;11.302;2023-07-30T07:38:32;98128.00;;;24.44;57.75
33163;BME280;29282;45.656;11.302;2023-07-30T07:40:59;98125.22;;;24.44;57.95
33163;BME280;29282;45.656;11.302;2023-07-30T07:43:24;98119.69;;;24.44;57.91
33163;BME280;29282;45.656;11.302;2023-07-30T07:45:50;98130.38;;;24.46;57.65
33163;BME280;29282;45.656;11.302;2023-07-30T07:48:15;98133.13;;;24.46;57.58
33163;BME280;29282;45.656;11.302;2023-07-30T07:50:41;98133.13;;;24.46;57.63
33163;BME280;29282;45.656;11.302;2023-07-30T07:53:06;98138.69;;;24.46;57.74
33163;BME280;29282;45.656;11.302;2023-07-30T07:55:32;98141.44;;;24.46;57.87
33163;BME280;29282;45.656;11.302;2023-07-30T07:57:58;98142.25;;;24.46;57.72
33163;BME280;29282;45.656;11.302;2023-07-30T08:00:23;98124.47;;;24.47;57.70
33163;BME280;29282;45.656;11.302;2023-07-30T08:02:49;98134.72;;;24.47;57.78
33163;BME280;29282;45.656;11.302;2023-07-30T08:05:15;98138.69;;;24.46;57.63
33163;BME280;29282;45.656;11.302;2023-07-30T08:07:41;98136.69;;;24.46;57.63
33163;BME280;29282;45.656;11.302;2023-07-30T08:10:07;98140.25;;;24.47;57.76
33163;BME280;29282;45.656;11.302;2023-07-30T08:12:33;98139.47;;;24.46;57.68
33163;BME280;29282;45.656;11.302;2023-07-30T08:14:58;98144.66;;;24.48;57.61
33163;BME280;29282;45.656;11.302;2023-07-30T08:17:24;98139.47;;;24.46;57.86
33163;BME280;29282;45.656;11.302;2023-07-30T08:19:50;98145.81;;;24.47;57.67
33163;BME280;29282;45.656;11.302;2023-07-30T08:22:15;98139.47;;;24.46;57.66
33163;BME280;29282;45.656;11.302;2023-07-30T08:24:41;98148.22;;;24.48;57.49
33163;BME280;29282;45.656;11.302;2023-07-30T08:27:06;98143.84;;;24.47;57.62
33163;BME280;29282;45.656;11.302;2023-07-30T08:29:32;98145.81;;;24.47;57.50
33163;BME280;29282;45.656;11.302;2023-07-30T08:31:57;98146.63;;;24.47;57.62
33163;BME280;29282;45.656;11.302;2023-07-30T08:34:23;98134.38;;;24.48;57.59
33163;BME280;29282;45.656;11.302;2023-07-30T08:36:49;98134.72;;;24.47;57.63
33163;BME280;29282;45.656;11.302;2023-07-30T08:39:14;98136.34;;;24.48;57.76
33163;BME280;29282;45.656;11.302;2023-07-30T08:41:40;98132.78;;;24.47;57.67
33163;BME280;29282;45.656;11.302;2023-07-30T08:44:06;98133.56;;;24.48;57.88
33163;BME280;29282;45.656;11.302;2023-07-30T08:46:31;98131.97;;;24.47;57.83
33163;BME280;29282;45.656;11.302;2023-07-30T08:48:57;98134.38;;;24.48;57.62
33163;BME280;29282;45.656;11.302;2023-07-30T08:51:23;98137.94;;;24.49;57.56
33163;BME280;29282;45.656;11.302;2023-07-30T08:53:56;98130.81;;;24.48;57.80
33163;BME280;29282;45.656;11.302;2023-07-30T08:56:22;98128.81;;;24.48;57.56
33163;BME280;29282;45.656;11.302;2023-07-30T08:58:50;98123.28;;;24.48;57.71
33163;BME280;29282;45.656;11.302;2023-07-30T09:01:23;98122.50;;;24.48;57.61
33163;BME280;29282;45.656;11.302;2023-07-30T09:03:51;98117.75;;;24.48;57.72
33163;BME280;29282;45.656;11.302;2023-07-30T09:06:18;98111.41;;;24.48;57.68
33163;BME280;29282;45.656;11.302;2023-07-30T09:08:43;98117.34;;;24.50;57.91
33163;BME280;29282;45.656;11.302;2023-07-30T09:11:10;98107.47;;;24.49;57.68
33163;BME280;29282;45.656;11.302;2023-07-30T09:13:40;98115.41;;;24.50;57.89
33163;BME280;29282;45.656;11.302;2023-07-30T09:16:09;98104.69;;;24.49;57.51
33163;BME280;29282;45.656;11.302;2023-07-30T09:18:44;98107.88;;;24.51;57.74
33163;BME280;29282;45.656;11.302;2023-07-30T09:21:11;98109.88;;;24.50;57.87
33163;BME280;29282;45.656;11.302;2023-07-30T09:23:44;98107.88;;;24.51;57.78
33163;BME280;29282;45.656;11.302;2023-07-30T09:26:10;98110.66;;;24.51;57.73
33163;BME280;29282;45.656;11.302;2023-07-30T09:28:36;98112.25;;;24.52;57.74
33163;BME280;29282;45.656;11.302;2023-07-30T09:31:06;98112.25;;;24.52;57.82
33163;BME280;29282;45.656;11.302;2023-07-30T09:33:33;98109.47;;;24.52;57.92
33163;BME280;29282;45.656;11.302;2023-07-30T09:36:02;98114.22;;;24.51;57.92
33163;BME280;29282;45.656;11.302;2023-07-30T09:38:27;98114.63;;;24.53;58.03
33163;BME280;29282;45.656;11.302;2023-07-30T09:41:00;98119.38;;;24.53;58.04
33163;BME280;29282;45.656;11.302;2023-07-30T09:43:32;98111.06;;;24.53;58.01
33163;BME280;29282;45.656;11.302;2023-07-30T09:46:02;98117.38;;;24.53;58.10
33163;BME280;29282;45.656;11.302;2023-07-30T09:48:30;98105.53;;;24.53;58.06
33163;BME280;29282;45.656;11.302;2023-07-30T09:50:59;98109.91;;;24.54;58.22
33163;BME280;29282;45.656;11.302;2023-07-30T09:53:26;98103.19;;;24.55;58.21
33163;BME280;29282;45.656;11.302;2023-07-30T09:55:54;98111.47;;;24.55;58.30
33163;BME280;29282;45.656;11.302;2023-07-30T09:58:20;98111.47;;;24.55;58.39
33163;BME280;29282;45.656;11.302;2023-07-30T10:00:46;98111.47;;;24.55;58.46
33163;BME280;29282;45.656;11.302;2023-07-30T10:03:15;98114.25;;;24.55;58.49
33163;BME280;29282;45.656;11.302;2023-07-30T10:05:44;98116.22;;;24.54;58.42
33163;BME280;29282;45.656;11.302;2023-07-30T10:08:14;98115.84;;;24.56;58.57
33163;BME280;29282;45.656;11.302;2023-07-30T10:10:42;98125.75;;;24.57;58.53
33163;BME280;29282;45.656;11.302;2023-07-30T10:13:10;98119.41;;;24.56;58.70
33163;BME280;29282;45.656;11.302;2023-07-30T10:15:38;98124.16;;;24.56;58.49
33163;BME280;29282;45.656;11.302;2023-07-30T10:18:06;98128.09;;;24.55;58.36
33163;BME280;29282;45.656;11.302;2023-07-30T10:20:32;98115.84;;;24.56;58.65
33163;BME280;29282;45.656;11.302;2023-07-30T10:22:59;98109.50;;;24.55;58.69
33163;BME280;29282;45.656;11.302;2023-07-30T10:25:47;98113.06;;;24.56;58.77
33163;BME280;29282;45.656;11.302;2023-07-30T10:28:32;98117.81;;;24.55;58.79
33163;BME280;29282;45.656;11.302;2023-07-30T10:31:01;98110.31;;;24.56;59.01
33163;BME280;29282;45.656;11.302;2023-07-30T10:36:11;98101.63;;;24.57;58.78
33163;BME280;29282;45.656;11.302;2023-07-30T10:38:36;98100.84;;;24.57;58.98
33163;BME280;29282;45.656;11.302;2023-07-30T10:41:14;98109.16;;;24.57;58.80
33163;BME280;29282;45.656;11.302;2023-07-30T10:43:46;98106.38;;;24.57;58.78
33163;BME280;29282;45.656;11.302;2023-07-30T10:46:14;98107.16;;;24.57;58.63
33163;BME280;29282;45.656;11.302;2023-07-30T10:48:41;98109.16;;;24.57;58.86
33163;BME280;29282;45.656;11.302;2023-07-30T10:51:13;98109.53;;;24.59;58.89
33163;BME280;29282;45.656;11.302;2023-07-30T10:53:39;98106.78;;;24.59;58.96
33163;BME280;29282;45.656;11.302;2023-07-30T10:56:09;98091.34;;;24.58;58.92
33163;BME280;29282;45.656;11.302;2023-07-30T10:58:35;98100.44;;;24.58;58.93
33163;BME280;29282;45.656;11.302;2023-07-30T11:01:03;98100.44;;;24.58;59.08
33163;BME280;29282;45.656;11.302;2023-07-30T11:03:29;98098.47;;;24.59;59.14
33163;BME280;29282;45.656;11.302;2023-07-30T11:05:56;98102.81;;;24.60;59.19
33163;BME280;29282;45.656;11.302;2023-07-30T11:08:39;98093.72;;;24.59;59.27
33163;BME280;29282;45.656;11.302;2023-07-30T11:11:06;98083.44;;;24.60;59.10
33163;BME280;29282;45.656;11.302;2023-07-30T11:13:50;98077.88;;;24.60;59.13
33163;BME280;29282;45.656;11.302;2023-07-30T11:16:19;98077.88;;;24.60;58.99
33163;BME280;29282;45.656;11.302;2023-07-30T11:18:45;98079.88;;;24.59;58.97
33163;BME280;29282;45.656;11.302;2023-07-30T11:21:17;98078.72;;;24.60;59.34
33163;BME280;29282;45.656;11.302;2023-07-30T11:23:44;98075.94;;;24.60;59.26
33163;BME280;29282;45.656;11.302;2023-07-30T11:26:16;98071.19;;;24.61;59.25
33163;BME280;29282;45.656;11.302;2023-07-30T11:28:42;98080.28;;;24.61;59.54
33163;BME280;29282;45.656;11.302;2023-07-30T11:31:16;98082.66;;;24.63;59.81
33163;BME280;29282;45.656;11.302;2023-07-30T11:33:43;98078.31;;;24.62;59.69
33163;BME280;29282;45.656;11.302;2023-07-30T11:36:15;98075.97;;;24.64;59.68
33163;BME280;29282;45.656;11.302;2023-07-30T11:38:42;98073.19;;;24.64;59.85
33163;BME280;29282;45.656;11.302;2023-07-30T11:41:09;98069.25;;;24.65;60.11
33163;BME280;29282;45.656;11.302;2023-07-30T11:43:37;98065.69;;;24.65;60.41
33163;BME280;29282;45.656;11.302;2023-07-30T11:46:14;98059.75;;;24.66;60.61
33163;BME280;29282;45.656;11.302;2023-07-30T11:48:45;98064.91;;;24.68;60.63
33163;BME280;29282;45.656;11.302;2023-07-30T11:51:27;98068.47;;;24.68;60.64
33163;BME280;29282;45.656;11.302;2023-07-30T11:53:58;98068.47;;;24.68;60.68
33163;BME280;29282;45.656;11.302;2023-07-30T11:56:29;98072.03;;;24.69;60.79
33163;BME280;29282;45.656;11.302;2023-07-30T11:58:57;98068.47;;;24.68;60.62
33163;BME280;29282;45.656;11.302;2023-07-30T12:01:27;98062.16;;;24.68;60.58
33163;BME280;29282;45.656;11.302;2023-07-30T12:03:55;98060.16;;;24.68;60.50
33163;BME280;29282;45.656;11.302;2023-07-30T12:06:20;98061.34;;;24.67;60.63
33163;BME280;29282;45.656;11.302;2023-07-30T12:08:48;98061.34;;;24.67;60.28
33163;BME280;29282;45.656;11.302;2023-07-30T12:11:17;98056.97;;;24.66;60.42
33163;BME280;29282;45.656;11.302;2023-07-30T12:13:45;98055.81;;;24.67;60.17
33163;BME280;29282;45.656;11.302;2023-07-30T12:16:12;98047.50;;;24.67;60.35
33163;BME280;29282;45.656;11.302;2023-07-30T12:18:38;98058.59;;;24.67;60.26
33163;BME280;29282;45.656;11.302;2023-07-30T12:21:05;98061.34;;;24.67;60.02
33163;BME280;29282;45.656;11.302;2023-07-30T12:23:35;98059.75;;;24.66;59.91
33163;BME280;29282;45.656;11.302;2023-07-30T12:26:04;98070.06;;;24.69;60.17
33163;BME280;29282;45.656;11.302;2023-07-30T12:28:31;98066.91;;;24.67;60.22
33163;BME280;29282;45.656;11.302;2023-07-30T12:30:57;98052.66;;;24.69;60.27
33163;BME280;29282;45.656;11.302;2023-07-30T12:33:22;98052.66;;;24.69;60.30
33163;BME280;29282;45.656;11.302;2023-07-30T12:35:48;98050.28;;;24.67;60.08
33163;BME280;29282;45.656;11.302;2023-07-30T12:38:15;98047.50;;;24.67;60.15
33163;BME280;29282;45.656;11.302;2023-07-30T12:40:41;98043.91;;;24.67;59.93
33163;BME280;29282;45.656;11.302;2023-07-30T12:43:06;98041.97;;;24.67;60.26
33163;BME280;29282;45.656;11.302;2023-07-30T12:45:32;98042.75;;;24.68;60.11
33163;BME280;29282;45.656;11.302;2023-07-30T12:47:57;98032.47;;;24.68;59.96
33163;BME280;29282;45.656;11.302;2023-07-30T12:50:23;98033.25;;;24.69;60.08